ADDS METAR Data INFO
IDs: Format: Raw Decoded Include TAF

Data at: 1013 UTC 14 Dec 2017

KMAF 140953Z AUTO 34005KT 10SM CLR M01/M04 A2992 RMK AO2 SLP114 T10061044
KMAF 140853Z AUTO 32006KT 10SM CLR 00/M04 A2991 RMK AO2 SLP111 T00001039 55001
KMAF 140753Z AUTO 29005KT 10SM CLR 01/M02 A2991 RMK AO2 SLP110 T00111017
KMAF 140653Z AUTO 31003KT 10SM CLR 03/M01 A2992 RMK AO2 SLP112 T00281011
KMAF 140553Z AUTO 00000KT 10SM CLR 04/M01 A2992 RMK AO2 SLP113 T00391011 10150 20033 402001017 58003
KMAF 140453Z AUTO 20004KT 10SM CLR 07/M01 A2993 RMK AO2 SLP116 T00721011
KMAF 140353Z 17005KT 10SM CLR 07/M01 A2993 RMK AO2 SLP119 T00721011
KMAF 140253Z 20004KT 10SM CLR 08/M01 A2993 RMK AO2 SLP122 T00781011 58000
KMAF 140153Z 20005KT 10SM CLR 13/M02 A2994 RMK AO2 SLP123 T01281017
KMAF 140053Z 22005KT 10SM CLR 13/M01 A2994 RMK AO2 SLP127 T01331011
KMAF 132353Z 23005KT 10SM CLR 15/M02 A2993 RMK AO2 SLP122 T01501017 10200 20150 56008
KMAF 132253Z 26010KT 10SM CLR 19/M03 A2993 RMK AO2 SLP118 T01891028
KMAF 132153Z 23013KT 10SM CLR 19/M03 A2994 RMK AO2 SLP120 T01941033
KMAF 132053Z 24011KT 10SM CLR 20/M04 A2996 RMK AO2 SLP126 T02001044
KMAF 131953Z 24014KT 10SM CLR 19/M04 A2999 RMK AO2 SLP136 T01891044
KMAF 131853Z AUTO 24015KT 10SM CLR 17/M06 A3003 RMK AO2 SLP150 T01721056
KMAF 131753Z 25013G21KT 10SM CLR 15/M05 A3008 RMK AO2 SLP173 T01501050 10150 21017 58008
KMAF 131653Z AUTO 22011KT 10SM CLR 12/M04 A3011 RMK AO2 SLP184 T01221044
KMAF 131553Z 21007KT 10SM CLR 08/M03 A3012 RMK AO2 SLP191 T00831033
KMAF 131453Z 24005KT 10SM CLR 05/M03 A3011 RMK AO2 SLP189 T00501033 53001
KMAF 131353Z 21006KT 10SM CLR 03/M04 A3010 RMK AO2 SLP185 T00281044
KMAF 131253Z 24007KT 10SM CLR M01/M06 A3010 RMK AO2 SLP189 T10111056
KMAF 131153Z 26005KT 10SM CLR M01/M06 A3011 RMK AO2 SLP185 T10111061 10022 21011 58016
KMAF 131053Z AUTO 24006KT 10SM CLR M01/M06 A3013 RMK AO2 SLP190 T10061056
KMAF 130953Z AUTO 24005KT 10SM CLR M01/M06 A3014 RMK AO2 SLP194 T10061056
KMAF 130853Z AUTO 25005KT 10SM CLR 00/M06 A3016 RMK AO2 SLP201 T00001056 56021
KMAF 130753Z AUTO 26005KT 10SM CLR 01/M06 A3017 RMK AO2 SLP204 T00111056
KMAF 130653Z AUTO 25006KT 10SM CLR 02/M06 A3020 RMK AO2 SLP215 T00221056
KMAF 130553Z AUTO 23004KT 10SM CLR 01/M05 A3023 RMK AO2 SLP226 T00111050 10128 20011 401561017 56017
KMAF 130453Z 26003KT 10SM CLR 02/M05 A3024 RMK AO2 SLP234 T00171050
KMAF 130353Z 26005KT 10SM CLR 02/M04 A3026 RMK AO2 SLP242 T00171044
KMAF 130253Z 25006KT 10SM CLR 04/M05 A3028 RMK AO2 SLP250 T00391050 58007
KMAF 130153Z 25005KT 10SM CLR 06/M06 A3029 RMK AO2 SLP257 T00611056
KMAF 130053Z 25005KT 10SM CLR 08/M07 A3030 RMK AO2 SLP256 T00781072
KMAF 122353Z 24004KT 10SM CLR 13/M09 A3031 RMK AO2 SLP253 T01281094 10156 20106 56020
KMAF 122253Z 23006KT 10SM CLR 14/M09 A3032 RMK AO2 SLP255 T01441094